createdAt,value
2023-05-09T00:01:13.221Z,48.38
2023-05-09T00:03:40.980Z,52.78
2023-05-09T00:06:08.109Z,49.95
2023-05-09T00:08:36.316Z,50.42
2023-05-09T00:11:03.197Z,57.03
2023-05-09T00:13:30.249Z,62.80
2023-05-09T00:16:00.922Z,59.63
2023-05-09T00:18:28.788Z,58.17
2023-05-09T00:20:56.841Z,62.85
2023-05-09T00:23:24.101Z,66.05
2023-05-09T00:25:51.011Z,62.90
2023-05-09T00:28:18.034Z,61.40
2023-05-09T00:30:44.940Z,72.85
2023-05-09T00:33:12.036Z,64.95
2023-05-09T00:35:38.918Z,69.90
2023-05-09T00:38:06.058Z,65.97
2023-05-09T00:40:32.922Z,60.78
2023-05-09T00:43:00.465Z,74.35
2023-05-09T00:45:27.339Z,79.63
2023-05-09T00:47:54.530Z,77.93
2023-05-09T00:50:22.156Z,74.72
2023-05-09T00:52:49.047Z,77.85
2023-05-09T00:55:16.534Z,76.32
2023-05-09T00:57:43.748Z,73.78
2023-05-09T01:00:13.488Z,78.32
2023-05-09T01:02:45.965Z,79.72
2023-05-09T01:05:13.376Z,75.10
2023-05-09T01:07:52.585Z,79.50
2023-05-09T01:10:28.450Z,74.40
2023-05-09T01:13:07.739Z,76.38
2023-05-09T01:15:43.324Z,80.38
2023-05-09T01:18:23.566Z,86.63
2023-05-09T01:21:11.394Z,96.40
2023-05-09T01:23:44.701Z,85.95
2023-05-09T01:26:22.322Z,80.18
2023-05-09T01:28:52.620Z,86.20
2023-05-09T01:31:20.257Z,79.10
2023-05-09T01:33:51.580Z,71.55
2023-05-09T01:36:19.123Z,69.88
2023-05-09T01:38:49.321Z,70.93
2023-05-09T01:41:17.210Z,74.18
2023-05-09T01:43:46.362Z,59.08
2023-05-09T01:46:14.934Z,77.50
2023-05-09T01:48:42.959Z,73.97
2023-05-09T01:51:12.452Z,65.10
2023-05-09T01:53:40.782Z,76.05
2023-05-09T01:56:08.404Z,72.57
2023-05-09T01:58:36.479Z,67.40
2023-05-09T02:01:04.570Z,63.00
2023-05-09T02:03:34.255Z,66.65
2023-05-09T02:06:05.467Z,66.20
2023-05-09T02:08:33.084Z,70.10
2023-05-09T02:11:00.743Z,62.75
2023-05-09T02:13:27.786Z,64.15
2023-05-09T02:15:58.311Z,65.40
2023-05-09T02:18:25.335Z,73.63
2023-05-09T02:20:52.663Z,68.63
2023-05-09T02:23:20.242Z,73.65
2023-05-09T02:25:47.310Z,75.70
2023-05-09T02:28:14.699Z,74.32
2023-05-09T02:30:43.485Z,72.10
2023-05-09T02:33:11.888Z,71.93
2023-05-09T02:35:42.190Z,67.20
2023-05-09T02:38:09.257Z,81.25
2023-05-09T02:40:36.720Z,75.40
2023-05-09T02:43:04.326Z,76.88
2023-05-09T02:45:32.171Z,75.65
2023-05-09T02:48:03.135Z,71.25
2023-05-09T02:50:30.308Z,82.43
2023-05-09T02:52:57.509Z,71.82
2023-05-09T02:55:24.709Z,70.32
2023-05-09T02:57:58.915Z,63.90
2023-05-09T03:00:32.078Z,69.32
2023-05-09T03:03:00.506Z,69.97
2023-05-09T03:05:27.660Z,68.40
2023-05-09T03:07:54.610Z,68.00
2023-05-09T03:10:21.647Z,61.47
2023-05-09T03:12:48.595Z,73.05
2023-05-09T03:15:15.636Z,66.85
2023-05-09T03:17:45.112Z,73.90
2023-05-09T03:20:12.209Z,64.10
2023-05-09T03:22:39.539Z,66.35
2023-05-09T03:25:09.646Z,62.45
2023-05-09T03:27:36.778Z,62.90
2023-05-09T03:30:07.829Z,64.68
2023-05-09T03:32:35.524Z,61.10
2023-05-09T03:35:02.432Z,63.88
2023-05-09T03:37:30.103Z,62.50
2023-05-09T03:39:57.094Z,65.63
2023-05-09T03:42:24.927Z,61.17
2023-05-09T03:44:56.146Z,58.58
2023-05-09T03:47:23.440Z,58.72
2023-05-09T03:49:50.790Z,62.42
2023-05-09T03:52:21.308Z,62.50
2023-05-09T03:54:49.080Z,59.75
2023-05-09T03:57:16.581Z,57.10
2023-05-09T03:59:43.961Z,55.40
2023-05-09T04:02:12.061Z,55.80
2023-05-09T04:04:39.671Z,58.75
2023-05-09T04:07:06.975Z,51.95
2023-05-09T04:09:33.882Z,51.97
2023-05-09T04:12:00.920Z,52.67
2023-05-09T04:14:27.776Z,50.83
2023-05-09T04:16:54.934Z,53.58
2023-05-09T04:19:22.055Z,52.08
2023-05-09T04:21:49.291Z,48.33
2023-05-09T04:24:16.158Z,49.45
2023-05-09T04:26:46.291Z,48.25
2023-05-09T04:29:16.579Z,44.05
2023-05-09T04:31:48.831Z,43.63
2023-05-09T04:34:16.509Z,50.53
2023-05-09T04:36:43.371Z,47.97
2023-05-09T04:39:11.030Z,45.65
2023-05-09T04:41:44.546Z,46.65
2023-05-09T04:44:11.714Z,43.88
2023-05-09T04:46:38.896Z,43.72
2023-05-09T04:49:06.331Z,47.58
2023-05-09T04:51:33.663Z,46.72
2023-05-09T04:54:00.744Z,51.35
2023-05-09T04:56:32.933Z,47.53
2023-05-09T04:59:01.184Z,47.58
2023-05-09T05:01:29.147Z,39.97
2023-05-09T05:03:56.800Z,40.72
2023-05-09T05:06:23.711Z,43.85
2023-05-09T05:08:50.801Z,39.88
2023-05-09T05:11:21.973Z,43.38
2023-05-09T05:13:49.272Z,42.33
2023-05-09T05:16:16.681Z,38.25
2023-05-09T05:18:44.506Z,39.85
2023-05-09T05:21:11.894Z,41.95
2023-05-09T05:23:39.089Z,39.60
2023-05-09T05:26:06.107Z,44.42
2023-05-09T05:28:36.127Z,36.15
2023-05-09T05:31:03.858Z,38.72
2023-05-09T05:33:30.870Z,39.58
2023-05-09T05:35:57.742Z,37.63
2023-05-09T05:38:24.803Z,43.17
2023-05-09T05:40:54.894Z,45.42
2023-05-09T05:43:22.790Z,37.25
2023-05-09T05:45:49.906Z,33.95
2023-05-09T05:48:19.424Z,37.45
2023-05-09T05:50:47.467Z,36.15
2023-05-09T05:53:17.159Z,43.10
2023-05-09T05:55:46.056Z,46.20
2023-05-09T05:58:13.556Z,47.15
2023-05-09T06:00:40.722Z,40.53
2023-05-09T06:03:08.869Z,41.47
2023-05-09T06:05:47.665Z,43.22
2023-05-09T06:08:14.998Z,41.83
2023-05-09T06:10:41.935Z,41.88
2023-05-09T06:13:08.974Z,45.00
2023-05-09T06:15:37.821Z,38.38
2023-05-09T06:18:04.953Z,44.95
2023-05-09T06:20:32.033Z,41.90
2023-05-09T06:22:59.097Z,47.40
2023-05-09T06:25:26.065Z,43.55
2023-05-09T06:27:53.171Z,41.85
2023-05-09T06:32:50.450Z,42.53
2023-05-09T06:35:17.468Z,38.63
2023-05-09T06:37:45.509Z,43.72
2023-05-09T06:40:14.120Z,45.60
2023-05-09T06:42:41.023Z,47.28
2023-05-09T06:45:08.658Z,43.65
2023-05-09T06:47:35.903Z,44.90
2023-05-09T06:50:03.011Z,44.85
2023-05-09T06:52:30.764Z,44.88
2023-05-09T06:54:57.657Z,54.55
2023-05-09T06:57:24.734Z,51.53
2023-05-09T06:59:51.681Z,44.35
2023-05-09T07:02:18.735Z,47.65
2023-05-09T07:04:45.672Z,44.55
2023-05-09T07:07:12.862Z,46.63
2023-05-09T07:09:39.742Z,45.47
2023-05-09T07:12:06.826Z,44.83
2023-05-09T07:14:33.711Z,47.65
2023-05-09T07:17:18.158Z,45.92
2023-05-09T07:19:47.858Z,48.40
2023-05-09T07:22:14.858Z,44.22
2023-05-09T07:24:41.903Z,50.50
2023-05-09T07:27:08.799Z,41.70
2023-05-09T07:29:35.926Z,45.47
2023-05-09T07:32:02.908Z,47.53
2023-05-09T07:34:29.976Z,53.80
2023-05-09T07:36:58.875Z,44.13
2023-05-09T07:39:26.221Z,46.53
2023-05-09T07:41:57.057Z,70.72
2023-05-09T07:44:24.866Z,52.55
2023-05-09T07:46:51.723Z,45.80
2023-05-09T07:49:18.837Z,48.22
2023-05-09T07:51:45.950Z,55.45
2023-05-09T07:54:13.061Z,43.60
2023-05-09T07:56:39.918Z,49.80
2023-05-09T07:59:06.928Z,43.40
2023-05-09T08:01:34.108Z,40.25
2023-05-09T08:04:01.075Z,40.33
2023-05-09T08:06:28.288Z,36.47
2023-05-09T08:08:55.144Z,37.03
2023-05-09T08:11:22.458Z,37.72
2023-05-09T08:13:49.307Z,35.05
2023-05-09T08:16:17.669Z,36.95
2023-05-09T08:18:44.741Z,30.67
2023-05-09T08:21:11.885Z,29.92
2023-05-09T08:23:38.814Z,34.17
2023-05-09T08:26:06.163Z,30.30
2023-05-09T08:28:33.182Z,35.95
2023-05-09T08:31:00.286Z,33.75
2023-05-09T08:33:27.493Z,36.38
2023-05-09T08:35:54.584Z,33.35
2023-05-09T08:38:21.550Z,33.25
2023-05-09T08:40:48.911Z,34.40
2023-05-09T08:43:18.340Z,34.30
2023-05-09T08:45:52.307Z,36.35
2023-05-09T08:48:20.317Z,38.60
2023-05-09T08:50:47.560Z,34.92
2023-05-09T08:53:14.998Z,34.50
2023-05-09T08:55:41.940Z,34.78
2023-05-09T08:58:09.970Z,39.38
2023-05-09T09:00:41.179Z,34.30
2023-05-09T09:03:08.561Z,35.35
2023-05-09T09:05:41.837Z,31.42
2023-05-09T09:08:10.287Z,36.13
2023-05-09T09:10:40.899Z,36.13
2023-05-09T09:13:08.859Z,37.65
2023-05-09T09:15:37.237Z,35.35
2023-05-09T09:18:10.269Z,40.85
2023-05-09T09:20:41.877Z,33.25
2023-05-09T09:23:10.797Z,28.95
2023-05-09T09:25:37.967Z,38.85
2023-05-09T09:28:05.570Z,32.80
2023-05-09T09:30:32.770Z,34.53
2023-05-09T09:33:00.608Z,33.00
2023-05-09T09:35:27.613Z,32.42
2023-05-09T09:38:01.840Z,33.03
2023-05-09T09:40:28.909Z,27.13
2023-05-09T09:42:55.816Z,28.33
2023-05-09T09:45:22.880Z,25.95
2023-05-09T09:47:50.362Z,26.00
2023-05-09T09:50:19.292Z,24.83
2023-05-09T09:52:51.783Z,22.38
2023-05-09T09:55:20.628Z,28.45
2023-05-09T09:57:48.488Z,28.55
2023-05-09T10:00:20.195Z,29.27
2023-05-09T10:02:51.171Z,24.13
2023-05-09T10:05:27.923Z,21.83
2023-05-09T10:08:02.791Z,20.90
2023-05-09T10:10:31.800Z,22.80
2023-05-09T10:13:01.646Z,25.48
2023-05-09T10:15:35.577Z,24.00
2023-05-09T10:18:08.452Z,23.00
2023-05-09T10:20:36.264Z,23.83
2023-05-09T10:23:03.783Z,21.77
2023-05-09T10:25:40.741Z,25.27
2023-05-09T10:28:16.194Z,31.20
2023-05-09T10:30:55.555Z,25.20
2023-05-09T10:33:28.137Z,24.70
2023-05-09T10:35:56.376Z,28.10
2023-05-09T10:38:24.771Z,23.23
2023-05-09T10:40:53.512Z,24.52
2023-05-09T10:43:22.093Z,29.75
2023-05-09T10:45:49.176Z,27.85
2023-05-09T10:48:16.356Z,21.80
2023-05-09T10:50:43.784Z,24.60
2023-05-09T10:53:18.031Z,23.80
2023-05-09T10:55:59.370Z,23.77
2023-05-09T10:58:32.093Z,26.48
2023-05-09T11:01:01.524Z,23.90
2023-05-09T11:03:30.994Z,25.92
2023-05-09T11:06:00.654Z,19.60
2023-05-09T11:08:31.401Z,25.33
2023-05-09T11:11:01.101Z,19.75
2023-05-09T11:13:31.744Z,24.42
2023-05-09T11:16:01.956Z,22.40
2023-05-09T11:18:29.937Z,25.05
2023-05-09T11:20:57.143Z,22.40
2023-05-09T11:23:30.077Z,25.27
2023-05-09T11:26:06.705Z,21.50
2023-05-09T11:28:36.516Z,23.85
2023-05-09T11:31:14.043Z,23.73
2023-05-09T11:33:42.661Z,25.55
2023-05-09T11:36:30.152Z,23.63
2023-05-09T11:39:01.958Z,21.77
2023-05-09T11:41:29.367Z,25.48
2023-05-09T11:44:00.485Z,27.35
2023-05-09T11:46:27.834Z,25.58
2023-05-09T11:48:55.370Z,21.65
2023-05-09T11:51:22.511Z,22.13
2023-05-09T11:53:50.679Z,20.10
2023-05-09T11:56:17.813Z,24.63
2023-05-09T11:58:44.833Z,21.08
2023-05-09T12:01:12.773Z,21.67
2023-05-09T12:03:45.012Z,19.55
2023-05-09T12:06:19.774Z,22.42
2023-05-09T12:08:48.108Z,22.35
2023-05-09T12:11:15.749Z,20.92
2023-05-09T12:13:50.535Z,22.45
2023-05-09T12:16:18.631Z,22.15
2023-05-09T12:18:48.014Z,24.20
2023-05-09T12:21:15.644Z,24.48
2023-05-09T12:23:42.746Z,24.15
2023-05-09T12:26:11.171Z,28.25
2023-05-09T12:28:38.821Z,26.55
2023-05-09T12:31:06.679Z,24.17
2023-05-09T12:33:34.008Z,23.50
2023-05-09T12:36:08.498Z,25.52
2023-05-09T12:38:35.608Z,26.08
2023-05-09T12:41:03.755Z,25.40
2023-05-09T12:43:35.577Z,21.70
2023-05-09T12:46:03.766Z,27.75
2023-05-09T12:48:35.210Z,22.05
2023-05-09T12:51:03.755Z,18.20
2023-05-09T12:53:31.791Z,16.88
2023-05-09T12:56:06.107Z,16.25
2023-05-09T12:58:33.984Z,18.08
2023-05-09T13:01:04.245Z,16.83
2023-05-09T13:03:38.204Z,15.25
2023-05-09T13:06:08.056Z,16.20
2023-05-09T13:08:35.404Z,16.70
2023-05-09T13:11:15.010Z,15.60
2023-05-09T13:13:43.482Z,16.90
2023-05-09T13:16:11.496Z,17.38
2023-05-09T13:18:39.105Z,16.13
2023-05-09T13:21:06.004Z,16.67
2023-05-09T13:23:33.103Z,16.50
2023-05-09T13:26:00.195Z,13.35
2023-05-09T13:28:27.220Z,13.23
2023-05-09T13:30:54.177Z,14.95
2023-05-09T13:35:51.341Z,14.23
2023-05-09T13:38:18.315Z,18.30
2023-05-09T13:40:45.188Z,24.00
2023-05-09T13:43:12.422Z,13.45
2023-05-09T13:45:39.383Z,12.30
2023-05-09T13:48:06.696Z,14.80
2023-05-09T13:50:34.398Z,15.93
2023-05-09T13:53:01.726Z,18.42
2023-05-09T13:55:30.967Z,14.02
2023-05-09T13:57:57.895Z,13.65
2023-05-09T14:00:26.805Z,15.23
2023-05-09T14:02:54.319Z,13.68
2023-05-09T14:05:21.800Z,14.57
2023-05-09T14:07:49.031Z,16.55
2023-05-09T14:10:16.048Z,12.88
2023-05-09T14:12:44.654Z,13.38
2023-05-09T14:15:11.577Z,12.43
2023-05-09T14:17:38.741Z,14.85
2023-05-09T14:20:06.954Z,16.10
2023-05-09T14:22:34.056Z,14.43
2023-05-09T14:25:00.937Z,13.70
2023-05-09T14:27:27.958Z,12.65
2023-05-09T14:29:55.461Z,13.77
2023-05-09T14:32:22.549Z,12.18
2023-05-09T14:34:49.804Z,11.48
2023-05-09T14:37:17.092Z,12.23
2023-05-09T14:39:45.325Z,13.00
2023-05-09T14:42:14.339Z,11.52
2023-05-09T14:44:42.078Z,14.30
2023-05-09T14:47:10.101Z,11.02
2023-05-09T14:49:38.914Z,11.55
2023-05-09T14:52:06.195Z,12.43
2023-05-09T14:54:33.196Z,13.25
2023-05-09T14:57:02.132Z,11.15
2023-05-09T14:59:29.712Z,12.73
2023-05-09T15:01:56.885Z,14.00
2023-05-09T15:04:28.300Z,14.65
2023-05-09T15:06:55.401Z,13.27
2023-05-09T15:09:22.739Z,14.73
2023-05-09T15:11:49.710Z,14.25
2023-05-09T15:14:19.215Z,20.30
2023-05-09T15:16:46.198Z,17.60
2023-05-09T15:19:13.378Z,17.48
2023-05-09T15:21:40.210Z,11.43
2023-05-09T15:24:07.597Z,14.20
2023-05-09T15:26:34.662Z,49.17
2023-05-09T15:29:02.408Z,15.32
2023-05-09T15:31:33.646Z,12.25
2023-05-09T15:34:01.503Z,16.35
2023-05-09T15:36:33.968Z,15.75
2023-05-09T15:39:01.249Z,16.35
2023-05-09T15:41:28.774Z,17.88
2023-05-09T15:43:55.867Z,19.52
2023-05-09T15:46:23.136Z,16.63
2023-05-09T15:48:50.745Z,12.93
2023-05-09T15:51:20.201Z,12.00
2023-05-09T15:53:47.071Z,11.55
2023-05-09T15:56:14.375Z,10.90
2023-05-09T15:58:41.281Z,11.75
2023-05-09T16:01:08.455Z,14.90
2023-05-09T16:03:35.858Z,12.57
2023-05-09T16:06:03.510Z,13.75
2023-05-09T16:08:31.242Z,12.02
2023-05-09T16:11:00.945Z,18.40
2023-05-09T16:13:28.305Z,16.95
2023-05-09T16:15:55.686Z,16.92
2023-05-09T16:18:23.047Z,14.23
2023-05-09T16:20:50.064Z,15.32
2023-05-09T16:23:17.619Z,14.13
2023-05-09T16:25:45.136Z,20.05
2023-05-09T16:28:12.394Z,16.35
2023-05-09T16:30:39.314Z,16.00
2023-05-09T16:33:06.453Z,18.75
2023-05-09T16:35:34.080Z,14.05
2023-05-09T16:38:01.252Z,11.70
2023-05-09T16:40:28.682Z,13.55
2023-05-09T16:42:55.973Z,24.83
2023-05-09T16:45:22.859Z,24.42
2023-05-09T16:47:51.371Z,10.23
2023-05-09T16:50:18.414Z,16.08
2023-05-09T16:52:45.385Z,12.23
2023-05-09T16:55:14.663Z,32.45
2023-05-09T16:57:41.839Z,12.18
2023-05-09T17:00:10.268Z,15.55
2023-05-09T17:02:37.394Z,38.90
2023-05-09T17:05:04.970Z,38.22
2023-05-09T17:07:32.438Z,62.25
2023-05-09T17:09:59.601Z,76.50
2023-05-09T17:12:27.713Z,25.75
2023-05-09T17:14:54.693Z,69.07
2023-05-09T17:17:21.787Z,11.43
2023-05-09T17:19:48.735Z,79.32
2023-05-09T17:22:15.974Z,37.45
2023-05-09T17:24:42.975Z,21.23
2023-05-09T17:27:11.614Z,35.75
2023-05-09T17:29:38.690Z,53.60
2023-05-09T17:32:07.011Z,33.15
2023-05-09T17:34:33.883Z,20.98
2023-05-09T17:37:02.513Z,18.05
2023-05-09T17:39:29.532Z,15.73
2023-05-09T17:41:56.560Z,20.77
2023-05-09T17:44:24.137Z,19.92
2023-05-09T17:46:51.333Z,21.33
2023-05-09T17:49:18.504Z,34.85
2023-05-09T17:51:45.701Z,25.95
2023-05-09T17:54:13.078Z,15.15
2023-05-09T17:56:40.310Z,36.95
2023-05-09T17:59:07.977Z,20.83
2023-05-09T18:01:35.496Z,14.95
2023-05-09T18:04:02.971Z,7.97
2023-05-09T18:06:30.278Z,13.32
2023-05-09T18:08:57.237Z,36.03
2023-05-09T18:11:24.678Z,11.68
2023-05-09T18:13:51.769Z,15.82
2023-05-09T18:16:18.685Z,11.50
2023-05-09T18:18:45.881Z,12.82
2023-05-09T18:21:12.806Z,11.90
2023-05-09T18:23:40.900Z,17.00
2023-05-09T18:26:08.727Z,11.18
2023-05-09T18:28:44.701Z,18.27
2023-05-09T18:31:13.000Z,13.35
2023-05-09T18:33:40.218Z,37.85
2023-05-09T18:36:11.669Z,57.75
2023-05-09T18:38:39.138Z,18.65
2023-05-09T18:41:07.957Z,20.27
2023-05-09T18:43:36.021Z,23.23
2023-05-09T18:46:03.802Z,30.70
2023-05-09T18:48:31.931Z,21.73
2023-05-09T18:50:58.861Z,20.23
2023-05-09T18:53:26.552Z,17.63
2023-05-09T18:55:53.531Z,25.63
2023-05-09T18:58:21.428Z,19.98
2023-05-09T19:00:48.510Z,17.10
2023-05-09T19:03:15.422Z,16.30
2023-05-09T19:05:43.198Z,19.27
2023-05-09T19:08:10.196Z,18.95
2023-05-09T19:10:38.066Z,15.25
2023-05-09T19:13:06.536Z,18.25
2023-05-09T19:15:34.723Z,16.10
2023-05-09T19:18:02.171Z,25.67
2023-05-09T19:20:29.993Z,21.65
2023-05-09T19:22:58.125Z,19.70
2023-05-09T19:25:26.034Z,19.63
2023-05-09T19:27:53.013Z,31.10
2023-05-09T19:30:20.999Z,27.48
2023-05-09T19:32:47.920Z,26.05
2023-05-09T19:35:15.037Z,27.13
2023-05-09T19:37:41.958Z,35.55
2023-05-09T19:40:11.585Z,32.95
2023-05-09T19:42:38.616Z,27.30
2023-05-09T19:45:06.046Z,30.33
2023-05-09T19:47:33.190Z,30.77
2023-05-09T19:50:02.267Z,25.92
2023-05-09T19:52:31.497Z,26.98
2023-05-09T19:54:58.325Z,30.08
2023-05-09T19:57:25.342Z,25.70
2023-05-09T19:59:53.493Z,33.47
2023-05-09T20:02:20.698Z,39.50
2023-05-09T20:04:50.013Z,48.63
2023-05-09T20:07:17.656Z,35.30
2023-05-09T20:09:44.717Z,26.60
2023-05-09T20:12:11.710Z,26.15
2023-05-09T20:14:41.760Z,21.25
2023-05-09T20:17:08.668Z,22.60
2023-05-09T20:19:35.783Z,18.45
2023-05-09T20:22:02.705Z,21.50
2023-05-09T20:24:31.509Z,19.25
2023-05-09T20:26:58.459Z,22.17
2023-05-09T20:29:26.086Z,22.73
2023-05-09T20:31:53.034Z,23.00
2023-05-09T20:34:21.546Z,25.27
2023-05-09T20:36:52.289Z,24.58
2023-05-09T20:39:19.997Z,25.77
2023-05-09T20:41:47.885Z,21.85
2023-05-09T20:44:15.751Z,25.65
2023-05-09T20:46:43.548Z,26.05
2023-05-09T20:49:10.678Z,30.33
2023-05-09T20:51:38.242Z,41.28
2023-05-09T20:54:06.028Z,32.63
2023-05-09T20:56:35.720Z,38.85
2023-05-09T20:59:04.403Z,38.22
2023-05-09T21:01:32.669Z,46.65
2023-05-09T21:03:59.700Z,43.92
2023-05-09T21:06:26.698Z,44.85
2023-05-09T21:08:53.624Z,50.13
2023-05-09T21:11:22.079Z,54.05
2023-05-09T21:13:49.023Z,49.70
2023-05-09T21:16:16.358Z,64.30
2023-05-09T21:18:43.454Z,61.70
2023-05-09T21:21:10.561Z,65.03
2023-05-09T21:23:37.580Z,67.95
2023-05-09T21:26:04.879Z,79.30
2023-05-09T21:28:32.139Z,67.72
2023-05-09T21:31:01.903Z,67.65
2023-05-09T21:33:30.007Z,79.32
2023-05-09T21:35:57.361Z,80.65
2023-05-09T21:38:24.385Z,83.55
2023-05-09T21:40:51.761Z,75.75
2023-05-09T21:43:19.136Z,73.70
2023-05-09T21:45:46.196Z,83.90
2023-05-09T21:48:13.322Z,80.78
2023-05-09T21:50:40.602Z,77.90
2023-05-09T21:53:07.438Z,77.47
2023-05-09T21:55:34.589Z,81.22
2023-05-09T21:58:01.542Z,76.18
2023-05-09T22:00:28.549Z,76.78
2023-05-09T22:02:55.680Z,76.95
2023-05-09T22:05:23.842Z,77.93
2023-05-09T22:07:51.795Z,77.72
2023-05-09T22:10:18.912Z,76.18
2023-05-09T22:12:46.324Z,82.38
2023-05-09T22:15:13.316Z,71.40
2023-05-09T22:17:40.349Z,71.40
2023-05-09T22:20:08.230Z,75.95
2023-05-09T22:22:35.344Z,82.13
2023-05-09T22:25:06.549Z,76.45
2023-05-09T22:27:33.686Z,80.47
2023-05-09T22:30:01.488Z,87.65
2023-05-09T22:32:28.624Z,79.93
2023-05-09T22:34:55.506Z,81.20
2023-05-09T22:37:22.748Z,73.40
2023-05-09T22:39:49.566Z,74.63
2023-05-09T22:42:16.526Z,81.28
2023-05-09T22:44:43.428Z,79.75
2023-05-09T22:47:10.646Z,82.22
2023-05-09T22:49:37.688Z,72.70
2023-05-09T22:52:04.936Z,76.05
2023-05-09T22:54:32.135Z,71.70
2023-05-09T22:56:59.162Z,75.80
2023-05-09T22:59:26.625Z,79.93
2023-05-09T23:01:53.718Z,87.53
2023-05-09T23:04:20.931Z,88.28
2023-05-09T23:06:47.965Z,73.90
2023-05-09T23:09:15.197Z,84.03
2023-05-09T23:11:42.500Z,83.68
2023-05-09T23:14:09.569Z,82.57
2023-05-09T23:16:39.581Z,80.75
2023-05-09T23:19:06.594Z,84.22
2023-05-09T23:21:33.943Z,73.85
2023-05-09T23:24:00.959Z,80.28
2023-05-09T23:26:27.918Z,77.90
2023-05-09T23:28:57.686Z,75.25
2023-05-09T23:31:24.654Z,76.72
2023-05-09T23:33:51.694Z,80.40
2023-05-09T23:36:18.603Z,80.03
2023-05-09T23:38:45.549Z,69.88
2023-05-09T23:41:12.848Z,65.40
2023-05-09T23:43:39.738Z,63.80
2023-05-09T23:46:06.793Z,69.38
2023-05-09T23:48:33.762Z,70.15
2023-05-09T23:51:00.918Z,68.90
2023-05-09T23:53:27.931Z,72.85
2023-05-09T23:55:55.210Z,71.28
2023-05-09T23:58:22.339Z,80.40
